createdAt,value
2023-01-27T00:01:19.070Z,46.73
2023-01-27T00:03:47.599Z,47.02
2023-01-27T00:06:16.036Z,46.93
2023-01-27T00:08:44.552Z,47.15
2023-01-27T00:11:30.157Z,46.87
2023-01-27T00:13:58.580Z,46.96
2023-01-27T00:16:28.349Z,46.77
2023-01-27T00:18:56.751Z,46.67
2023-01-27T00:21:42.326Z,46.90
2023-01-27T00:24:30.988Z,46.29
2023-01-27T00:26:59.805Z,46.50
2023-01-27T00:29:28.285Z,46.48
2023-01-27T00:32:15.596Z,46.75
2023-01-27T00:34:44.013Z,46.57
2023-01-27T00:37:12.420Z,46.27
2023-01-27T00:39:40.882Z,46.53
2023-01-27T00:42:09.341Z,46.53
2023-01-27T00:44:37.821Z,45.97
2023-01-27T00:47:08.018Z,46.58
2023-01-27T00:49:36.408Z,46.21
2023-01-27T00:52:05.095Z,46.17
2023-01-27T00:54:33.464Z,46.47
2023-01-27T00:57:01.804Z,46.05
2023-01-27T00:59:30.228Z,46.29
2023-01-27T01:01:58.701Z,46.77
2023-01-27T01:04:28.471Z,46.21
2023-01-27T01:06:56.835Z,46.22
2023-01-27T01:09:25.571Z,46.05
2023-01-27T01:11:53.946Z,46.60
2023-01-27T01:14:22.376Z,46.34
2023-01-27T01:16:50.735Z,46.41
2023-01-27T01:19:19.138Z,46.33
2023-01-27T01:21:48.867Z,46.56
2023-01-27T01:24:17.482Z,46.99
2023-01-27T01:26:45.849Z,46.49
2023-01-27T01:29:14.250Z,46.52
2023-01-27T01:31:42.685Z,46.54
2023-01-27T01:34:11.251Z,46.13
2023-01-27T01:36:39.601Z,46.38
2023-01-27T01:39:09.355Z,45.98
2023-01-27T01:41:37.745Z,46.42
2023-01-27T01:44:24.279Z,45.86
2023-01-27T01:46:52.721Z,46.03
2023-01-27T01:49:28.291Z,45.85
2023-01-27T01:52:01.280Z,46.17
2023-01-27T01:54:36.823Z,46.22
2023-01-27T01:57:09.619Z,45.78
2023-01-27T01:59:42.205Z,45.64
2023-01-27T02:02:15.744Z,45.84
2023-01-27T02:04:49.988Z,46.00
2023-01-27T02:07:27.482Z,46.12
2023-01-27T02:09:58.823Z,46.25
2023-01-27T02:12:27.236Z,46.27
2023-01-27T02:14:55.858Z,46.37
2023-01-27T02:17:24.546Z,46.13
2023-01-27T02:20:03.807Z,46.14
2023-01-27T02:22:41.173Z,46.20
2023-01-27T02:25:19.019Z,46.14
2023-01-27T02:27:48.757Z,45.78
2023-01-27T02:30:18.043Z,45.82
2023-01-27T02:32:46.446Z,45.87
2023-01-27T02:35:27.607Z,45.78
2023-01-27T02:37:57.227Z,45.83
2023-01-27T02:40:27.352Z,46.00
2023-01-27T02:42:58.526Z,46.00
2023-01-27T02:45:29.174Z,45.82
2023-01-27T02:47:57.570Z,45.79
2023-01-27T02:50:26.233Z,45.40
2023-01-27T02:52:54.656Z,45.68
2023-01-27T02:55:23.315Z,45.52
2023-01-27T02:57:51.689Z,45.15
2023-01-27T03:00:22.061Z,45.33
2023-01-27T03:02:50.431Z,45.37
2023-01-27T03:05:19.335Z,45.41
2023-01-27T03:07:47.728Z,45.28
2023-01-27T03:10:16.283Z,45.25
2023-01-27T03:12:46.242Z,45.80
2023-01-27T03:15:31.972Z,45.62
2023-01-27T03:18:16.197Z,45.55
2023-01-27T03:20:48.163Z,46.00
2023-01-27T03:23:18.696Z,45.68
2023-01-27T03:25:49.381Z,45.66
2023-01-27T03:28:17.965Z,46.02
2023-01-27T03:30:46.401Z,46.08
2023-01-27T03:33:16.251Z,45.96
2023-01-27T03:35:49.185Z,45.72
2023-01-27T03:38:35.772Z,45.58
2023-01-27T03:41:22.736Z,45.57
2023-01-27T03:44:08.714Z,45.86
2023-01-27T03:46:37.104Z,45.62
2023-01-27T03:49:06.856Z,45.48
2023-01-27T03:51:35.207Z,45.55
2023-01-27T03:54:03.624Z,46.13
2023-01-27T03:56:31.981Z,46.03
2023-01-27T03:59:00.363Z,46.03
2023-01-27T04:01:28.749Z,45.59
2023-01-27T04:04:14.604Z,46.11
2023-01-27T04:06:54.508Z,46.30
2023-01-27T04:09:26.041Z,46.48
2023-01-27T04:11:58.995Z,46.01
2023-01-27T04:14:30.619Z,45.72
2023-01-27T04:17:01.892Z,46.11
2023-01-27T04:19:31.074Z,46.31
2023-01-27T04:22:02.141Z,45.63
2023-01-27T04:24:30.928Z,46.00
2023-01-27T04:27:02.045Z,45.79
2023-01-27T04:29:33.417Z,46.31
2023-01-27T04:32:01.905Z,46.25
2023-01-27T04:34:30.657Z,46.01
2023-01-27T04:37:01.135Z,46.35
2023-01-27T04:39:29.488Z,46.10
2023-01-27T04:41:58.181Z,45.85
2023-01-27T04:44:27.106Z,45.86
2023-01-27T04:46:55.828Z,46.42
2023-01-27T04:49:26.727Z,46.25
2023-01-27T04:51:55.384Z,45.83
2023-01-27T04:54:25.158Z,45.89
2023-01-27T04:57:00.743Z,46.07
2023-01-27T04:59:29.560Z,46.56
2023-01-27T05:01:58.061Z,46.30
2023-01-27T05:04:27.433Z,46.35
2023-01-27T05:06:56.097Z,46.62
2023-01-27T05:09:26.255Z,45.88
2023-01-27T05:11:54.650Z,46.55
2023-01-27T05:14:23.691Z,46.33
2023-01-27T05:16:52.348Z,46.42
2023-01-27T05:19:20.822Z,46.75
2023-01-27T05:21:49.192Z,46.22
2023-01-27T05:24:17.623Z,46.45
2023-01-27T05:26:47.413Z,45.96
2023-01-27T05:29:15.845Z,46.24
2023-01-27T05:31:44.279Z,45.90
2023-01-27T05:34:12.740Z,46.21
2023-01-27T05:36:41.138Z,46.32
2023-01-27T05:39:12.446Z,45.99
2023-01-27T05:41:40.991Z,46.16
2023-01-27T05:44:12.940Z,46.07
2023-01-27T05:46:42.699Z,45.96
2023-01-27T05:49:11.124Z,45.80
2023-01-27T05:51:40.793Z,46.39
2023-01-27T05:54:09.978Z,45.48
2023-01-27T05:56:39.256Z,46.35
2023-01-27T05:59:08.590Z,45.56
2023-01-27T06:01:38.854Z,46.33
2023-01-27T06:04:07.832Z,46.16
2023-01-27T06:06:36.524Z,46.24
2023-01-27T06:09:05.269Z,45.87
2023-01-27T06:11:33.672Z,45.70
2023-01-27T06:14:02.092Z,46.07
2023-01-27T06:16:30.539Z,46.26
2023-01-27T06:19:00.554Z,45.99
2023-01-27T06:21:29.053Z,46.31
2023-01-27T06:23:58.287Z,45.65
2023-01-27T06:26:26.912Z,46.05
2023-01-27T06:28:57.255Z,46.08
2023-01-27T06:31:26.040Z,45.83
2023-01-27T06:33:54.976Z,45.30
2023-01-27T06:36:24.950Z,45.85
2023-01-27T06:38:53.480Z,45.13
2023-01-27T06:41:22.014Z,45.55
2023-01-27T06:43:50.452Z,45.65
2023-01-27T06:46:18.927Z,46.14
2023-01-27T06:48:47.391Z,46.08
2023-01-27T06:51:15.986Z,46.19
2023-01-27T06:53:45.753Z,45.93
2023-01-27T06:56:16.367Z,45.33
2023-01-27T06:58:45.612Z,45.38
2023-01-27T07:01:14.144Z,45.79
2023-01-27T07:03:44.710Z,45.62
2023-01-27T07:06:15.143Z,45.76
2023-01-27T07:08:47.056Z,45.58
2023-01-27T07:11:15.817Z,45.59
2023-01-27T07:13:44.383Z,45.39
2023-01-27T07:16:12.858Z,45.54
2023-01-27T07:18:41.284Z,45.19
2023-01-27T07:21:09.707Z,45.24
2023-01-27T07:23:38.058Z,45.67
2023-01-27T07:26:23.202Z,45.19
2023-01-27T07:28:53.034Z,45.38
2023-01-27T07:31:21.538Z,45.06
2023-01-27T07:33:50.328Z,45.37
2023-01-27T07:36:18.751Z,44.84
2023-01-27T07:38:50.641Z,45.48
2023-01-27T07:41:20.612Z,45.15
2023-01-27T07:43:51.434Z,45.37
2023-01-27T07:46:20.766Z,44.67
2023-01-27T07:48:49.122Z,45.38
2023-01-27T07:51:17.628Z,44.90
2023-01-27T07:53:46.153Z,45.43
2023-01-27T07:56:14.644Z,45.17
2023-01-27T07:58:44.677Z,45.56
2023-01-27T08:01:14.731Z,45.40
2023-01-27T08:03:43.219Z,45.43
2023-01-27T08:06:13.608Z,45.45
2023-01-27T08:08:42.041Z,45.13
2023-01-27T08:11:13.482Z,45.10
2023-01-27T08:13:43.680Z,45.01
2023-01-27T08:16:16.542Z,45.16
2023-01-27T08:18:44.950Z,44.95
2023-01-27T08:21:14.695Z,45.14
2023-01-27T08:23:43.192Z,45.11
2023-01-27T08:26:11.598Z,45.12
2023-01-27T08:28:41.504Z,44.74
2023-01-27T08:31:14.397Z,44.22
2023-01-27T08:33:44.066Z,44.95
2023-01-27T08:36:15.327Z,45.04
2023-01-27T08:38:45.521Z,45.22
2023-01-27T08:41:17.631Z,45.12
2023-01-27T08:43:46.523Z,45.08
2023-01-27T08:46:17.053Z,44.93
2023-01-27T08:48:46.437Z,44.73
2023-01-27T08:51:15.734Z,45.15
2023-01-27T08:53:44.217Z,44.89
2023-01-27T08:56:15.034Z,44.45
2023-01-27T08:58:45.821Z,44.59
2023-01-27T09:01:16.940Z,44.49
2023-01-27T09:03:45.785Z,44.17
2023-01-27T09:06:15.793Z,44.23
2023-01-27T09:08:45.347Z,44.07
2023-01-27T09:11:17.205Z,44.64
2023-01-27T09:13:45.903Z,44.91
2023-01-27T09:16:15.904Z,44.63
2023-01-27T09:18:44.432Z,44.38
2023-01-27T09:21:12.944Z,44.63
2023-01-27T09:23:41.425Z,44.60
2023-01-27T09:26:09.941Z,44.38
2023-01-27T09:28:38.384Z,44.43
2023-01-27T09:31:09.685Z,44.72
2023-01-27T09:33:40.074Z,45.01
2023-01-27T09:36:14.794Z,45.00
2023-01-27T09:38:48.801Z,45.26
2023-01-27T09:41:44.207Z,45.00
2023-01-27T09:44:48.549Z,45.70
2023-01-27T09:47:48.519Z,46.15
2023-01-27T09:50:43.444Z,46.25
2023-01-27T09:54:07.574Z,46.43
2023-01-27T09:56:54.750Z,46.35
2023-01-27T09:59:41.039Z,46.29
2023-01-27T10:02:26.488Z,45.78
2023-01-27T10:05:10.846Z,46.23
2023-01-27T10:08:00.435Z,46.25
2023-01-27T10:10:47.180Z,46.33
2023-01-27T10:13:33.422Z,46.32
2023-01-27T10:16:28.033Z,46.09
2023-01-27T10:19:25.316Z,45.75
2023-01-27T10:22:03.854Z,46.09
2023-01-27T10:24:56.917Z,46.39
2023-01-27T10:27:28.243Z,46.23
2023-01-27T10:30:04.615Z,46.37
2023-01-27T10:32:44.803Z,46.00
2023-01-27T10:35:21.028Z,46.03
2023-01-27T10:38:03.542Z,45.98
2023-01-27T10:40:43.617Z,45.94
2023-01-27T10:43:20.733Z,46.34
2023-01-27T10:45:57.202Z,45.81
2023-01-27T10:48:38.036Z,46.07
2023-01-27T10:51:12.867Z,45.56
2023-01-27T10:53:53.307Z,45.97
2023-01-27T10:56:34.162Z,45.38
2023-01-27T10:59:09.816Z,45.15
2023-01-27T11:01:45.575Z,45.52
2023-01-27T11:04:19.172Z,45.30
2023-01-27T11:06:49.855Z,45.27
2023-01-27T11:09:29.786Z,45.49
2023-01-27T11:12:05.750Z,45.20
2023-01-27T11:14:42.791Z,45.52
2023-01-27T11:17:18.833Z,45.39
2023-01-27T11:19:56.900Z,45.57
2023-01-27T11:22:35.772Z,45.22
2023-01-27T11:25:18.377Z,45.33
2023-01-27T11:28:21.415Z,45.01
2023-01-27T11:30:57.328Z,45.06
2023-01-27T11:33:32.756Z,45.09
2023-01-27T11:36:01.434Z,45.55
2023-01-27T11:38:29.955Z,45.36
2023-01-27T11:40:58.411Z,46.05
2023-01-27T11:43:29.432Z,45.90
2023-01-27T11:46:05.318Z,46.38
2023-01-27T11:48:41.324Z,46.23
2023-01-27T11:51:21.920Z,46.56
2023-01-27T11:53:58.280Z,46.24
2023-01-27T11:56:27.290Z,46.00
2023-01-27T11:59:04.587Z,46.63
2023-01-27T12:01:47.249Z,46.82
2023-01-27T12:04:25.182Z,47.25
2023-01-27T12:06:58.142Z,47.02
2023-01-27T12:09:35.886Z,47.40
2023-01-27T12:12:24.572Z,47.11
2023-01-27T12:14:56.184Z,47.42
2023-01-27T12:17:32.502Z,47.52
2023-01-27T12:20:07.053Z,47.41
2023-01-27T12:22:40.235Z,47.26
2023-01-27T12:25:19.432Z,46.91
2023-01-27T12:27:53.936Z,46.92
2023-01-27T12:30:27.412Z,47.22
2023-01-27T12:32:56.861Z,46.93
2023-01-27T12:35:29.872Z,46.70
2023-01-27T12:38:03.315Z,46.85
2023-01-27T12:40:33.150Z,46.10
2023-01-27T12:43:14.587Z,45.92
2023-01-27T12:45:45.197Z,45.73
2023-01-27T12:48:21.131Z,45.59
2023-01-27T12:51:05.795Z,45.04
2023-01-27T12:53:34.733Z,44.67
2023-01-27T12:56:12.271Z,44.40
2023-01-27T12:58:42.996Z,44.32
2023-01-27T13:01:27.428Z,44.45
2023-01-27T13:04:00.384Z,43.83
2023-01-27T13:06:42.372Z,44.01
2023-01-27T13:09:28.427Z,44.14
2023-01-27T13:12:00.116Z,43.78
2023-01-27T13:14:31.611Z,43.54
2023-01-27T13:17:02.696Z,43.73
2023-01-27T13:19:44.091Z,43.64
2023-01-27T13:22:21.706Z,43.43
2023-01-27T13:24:56.605Z,43.79
2023-01-27T13:27:26.643Z,43.82
2023-01-27T13:30:02.190Z,43.98
2023-01-27T13:32:38.026Z,43.61
2023-01-27T13:35:20.135Z,43.65
2023-01-27T13:37:59.639Z,43.50
2023-01-27T13:40:33.176Z,43.09
2023-01-27T13:43:10.925Z,43.13
2023-01-27T13:45:43.977Z,43.41
2023-01-27T13:48:22.469Z,42.87
2023-01-27T13:50:58.091Z,42.99
2023-01-27T13:53:27.257Z,43.20
2023-01-27T13:56:13.204Z,43.43
2023-01-27T13:58:56.008Z,43.52
2023-01-27T14:01:31.121Z,43.52
2023-01-27T14:04:31.403Z,43.44
2023-01-27T14:07:16.352Z,43.68
2023-01-27T14:10:01.960Z,44.06
2023-01-27T14:12:55.733Z,43.98
2023-01-27T14:15:32.554Z,43.52
2023-01-27T14:18:13.703Z,43.67
2023-01-27T14:21:02.225Z,43.90
2023-01-27T14:23:43.927Z,44.18
2023-01-27T14:26:48.967Z,44.13
2023-01-27T14:29:33.016Z,43.83
2023-01-27T14:32:13.043Z,44.47
2023-01-27T14:34:59.476Z,44.21
2023-01-27T14:37:38.410Z,44.22
2023-01-27T14:40:19.849Z,44.34
2023-01-27T14:43:05.667Z,43.90
2023-01-27T14:45:37.181Z,44.74
2023-01-27T14:48:22.729Z,45.08
2023-01-27T14:51:04.541Z,45.59
2023-01-27T14:53:50.833Z,45.65
2023-01-27T14:56:29.039Z,46.11
2023-01-27T14:59:07.326Z,45.85
2023-01-27T15:01:46.834Z,46.29
2023-01-27T15:04:37.738Z,46.93
2023-01-27T15:07:16.634Z,47.18
2023-01-27T15:10:21.903Z,46.80
2023-01-27T15:13:44.747Z,47.49
2023-01-27T15:16:52.737Z,47.30
2023-01-27T15:19:54.219Z,47.49
2023-01-27T15:22:56.930Z,48.14
2023-01-27T15:25:33.587Z,48.14
2023-01-27T15:28:03.857Z,48.19
2023-01-27T15:30:35.016Z,48.33
2023-01-27T15:33:03.654Z,48.65
2023-01-27T15:35:41.642Z,48.10
2023-01-27T15:38:34.489Z,48.33
2023-01-27T15:41:17.082Z,48.52
2023-01-27T15:44:16.781Z,48.80
2023-01-27T15:46:48.079Z,49.31
2023-01-27T15:49:21.977Z,48.60
2023-01-27T15:51:53.872Z,49.45
2023-01-27T15:54:28.915Z,49.30
2023-01-27T15:57:00.287Z,49.28
2023-01-27T15:59:32.621Z,49.50
2023-01-27T16:02:06.277Z,49.83
2023-01-27T16:04:35.014Z,49.49
2023-01-27T16:07:06.079Z,49.80
2023-01-27T16:09:41.989Z,49.96
2023-01-27T16:12:37.246Z,50.17
2023-01-27T16:15:34.021Z,50.79
2023-01-27T16:18:27.818Z,50.58
2023-01-27T16:21:06.566Z,50.09
2023-01-27T16:23:48.146Z,51.10
2023-01-27T16:26:30.486Z,50.70
2023-01-27T16:29:20.156Z,50.90
2023-01-27T16:31:53.395Z,50.28
2023-01-27T16:34:30.244Z,50.93
2023-01-27T16:37:05.901Z,50.93
2023-01-27T16:39:42.950Z,51.00
2023-01-27T16:42:34.970Z,51.12
2023-01-27T16:45:17.988Z,51.19
2023-01-27T16:47:51.209Z,51.21
2023-01-27T16:50:38.753Z,51.65
2023-01-27T16:53:14.484Z,52.02
2023-01-27T16:55:43.176Z,51.45
2023-01-27T16:58:24.386Z,51.80
2023-01-27T17:00:58.307Z,51.58
2023-01-27T17:03:37.576Z,51.44
2023-01-27T17:06:10.514Z,51.68
2023-01-27T17:08:46.801Z,51.32
2023-01-27T17:11:25.368Z,51.38
2023-01-27T17:14:02.856Z,51.86
2023-01-27T17:16:38.043Z,51.98
2023-01-27T17:19:12.146Z,51.99
2023-01-27T17:21:46.594Z,52.03
2023-01-27T17:24:21.994Z,51.24
2023-01-27T17:26:58.023Z,51.43
2023-01-27T17:29:38.199Z,51.52
2023-01-27T17:32:22.986Z,51.28
2023-01-27T17:34:54.851Z,51.08
2023-01-27T17:37:26.020Z,51.20
2023-01-27T17:39:58.957Z,51.07
2023-01-27T17:42:31.945Z,51.11
2023-01-27T17:45:27.275Z,51.30
2023-01-27T17:48:00.670Z,52.04
2023-01-27T17:50:36.479Z,51.93
2023-01-27T17:53:11.737Z,51.81
2023-01-27T17:55:40.753Z,52.11
2023-01-27T17:58:18.109Z,52.14
2023-01-27T18:00:48.997Z,52.08
2023-01-27T18:03:24.497Z,52.35
2023-01-27T18:05:55.883Z,51.92
2023-01-27T18:08:28.203Z,51.90
2023-01-27T18:11:11.204Z,51.75
2023-01-27T18:13:43.052Z,52.19
2023-01-27T18:16:18.281Z,51.82
2023-01-27T18:18:50.010Z,52.40
2023-01-27T18:21:24.063Z,52.56
2023-01-27T18:23:56.300Z,52.20
2023-01-27T18:26:29.039Z,51.91
2023-01-27T18:29:02.836Z,52.53
2023-01-27T18:31:35.451Z,51.99
2023-01-27T18:34:27.380Z,52.32
2023-01-27T18:37:00.372Z,52.42
2023-01-27T18:39:40.220Z,52.52
2023-01-27T18:42:17.064Z,52.49
2023-01-27T18:44:47.756Z,52.08
2023-01-27T18:47:34.411Z,51.81
2023-01-27T18:50:17.933Z,51.96
2023-01-27T18:52:47.903Z,51.83
2023-01-27T18:55:20.227Z,51.95
2023-01-27T18:57:52.173Z,52.10
2023-01-27T19:00:24.944Z,51.92
2023-01-27T19:02:59.305Z,51.81
2023-01-27T19:05:32.817Z,51.81
2023-01-27T19:08:06.558Z,51.36
2023-01-27T19:10:36.760Z,51.13
2023-01-27T19:13:06.396Z,51.49
2023-01-27T19:15:40.101Z,51.47
2023-01-27T19:18:17.327Z,51.11
2023-01-27T19:20:47.807Z,51.08
2023-01-27T19:23:19.255Z,51.41
2023-01-27T19:25:52.111Z,51.52
2023-01-27T19:28:28.719Z,51.46
2023-01-27T19:30:58.339Z,51.22
2023-01-27T19:33:29.412Z,50.81
2023-01-27T19:36:05.210Z,51.71
2023-01-27T19:38:34.788Z,51.09
2023-01-27T19:41:03.824Z,51.71
2023-01-27T19:43:33.358Z,50.83
2023-01-27T19:46:05.044Z,51.25
2023-01-27T19:48:35.372Z,50.85
2023-01-27T19:51:07.520Z,50.91
2023-01-27T19:53:37.867Z,51.61
2023-01-27T19:56:19.594Z,50.77
2023-01-27T19:58:52.014Z,51.02
2023-01-27T20:01:22.992Z,51.27
2023-01-27T20:03:53.991Z,51.18
2023-01-27T20:06:29.541Z,50.87
2023-01-27T20:09:04.039Z,51.10
2023-01-27T20:11:38.373Z,51.53
2023-01-27T20:14:14.234Z,51.49
2023-01-27T20:16:45.708Z,51.33
2023-01-27T20:19:16.705Z,51.81
2023-01-27T20:21:49.878Z,51.62
2023-01-27T20:24:21.398Z,51.56
2023-01-27T20:26:51.072Z,51.78
2023-01-27T20:29:20.977Z,51.41
2023-01-27T20:31:53.050Z,51.11
2023-01-27T20:34:23.281Z,51.11
2023-01-27T20:36:57.934Z,51.25
2023-01-27T20:39:28.263Z,51.69
2023-01-27T20:41:58.636Z,51.66
2023-01-27T20:44:28.336Z,51.89
2023-01-27T20:47:01.143Z,51.59
2023-01-27T20:49:32.428Z,52.03
2023-01-27T20:52:04.158Z,51.78
2023-01-27T20:54:35.052Z,52.29
2023-01-27T20:57:07.498Z,51.96
2023-01-27T20:59:36.957Z,52.39
2023-01-27T21:02:05.841Z,52.04
2023-01-27T21:04:37.130Z,51.71
2023-01-27T21:07:07.728Z,52.24
2023-01-27T21:09:37.000Z,52.78
2023-01-27T21:12:06.572Z,52.49
2023-01-27T21:14:35.604Z,52.66
2023-01-27T21:17:05.461Z,52.57
2023-01-27T21:19:33.958Z,52.55
2023-01-27T21:22:03.540Z,52.61
2023-01-27T21:24:35.951Z,52.68
2023-01-27T21:27:05.166Z,52.59
2023-01-27T21:29:35.332Z,52.22
2023-01-27T21:32:04.573Z,53.14
2023-01-27T21:34:33.198Z,53.17
2023-01-27T21:37:02.740Z,52.62
2023-01-27T21:39:34.297Z,53.02
2023-01-27T21:42:20.378Z,52.87
2023-01-27T21:45:06.849Z,52.40
2023-01-27T21:47:35.902Z,52.93
2023-01-27T21:50:04.914Z,52.84
2023-01-27T21:52:37.920Z,52.86
2023-01-27T21:55:11.172Z,52.44
2023-01-27T21:57:40.577Z,53.20
2023-01-27T22:00:12.525Z,52.71
2023-01-27T22:02:41.857Z,52.88
2023-01-27T22:05:11.688Z,52.75
2023-01-27T22:07:41.727Z,52.68
2023-01-27T22:10:16.550Z,52.18
2023-01-27T22:12:45.331Z,51.96
2023-01-27T22:15:16.488Z,51.97
2023-01-27T22:17:45.284Z,52.72
2023-01-27T22:20:15.536Z,52.59
2023-01-27T22:22:44.199Z,52.38
2023-01-27T22:25:17.025Z,51.90
2023-01-27T22:27:46.335Z,52.23
2023-01-27T22:30:18.001Z,51.91
2023-01-27T22:32:47.844Z,52.21
2023-01-27T22:35:18.857Z,51.32
2023-01-27T22:37:49.201Z,51.49
2023-01-27T22:40:19.594Z,52.16
2023-01-27T22:42:50.096Z,51.31
2023-01-27T22:45:19.098Z,51.00
2023-01-27T22:47:49.487Z,51.83
2023-01-27T22:50:19.055Z,51.49
2023-01-27T22:52:47.628Z,51.22
2023-01-27T22:55:16.512Z,51.86
2023-01-27T22:57:48.731Z,51.50
2023-01-27T23:00:18.435Z,51.21
2023-01-27T23:02:46.869Z,51.03
2023-01-27T23:05:15.903Z,51.34
2023-01-27T23:07:44.532Z,51.02
2023-01-27T23:10:13.047Z,51.55
2023-01-27T23:12:41.582Z,51.08
2023-01-27T23:15:12.791Z,50.84
2023-01-27T23:17:41.561Z,50.64
2023-01-27T23:20:12.186Z,51.23
2023-01-27T23:22:40.914Z,50.64
2023-01-27T23:25:11.676Z,50.85
2023-01-27T23:27:40.658Z,51.01
2023-01-27T23:30:13.352Z,51.24
2023-01-27T23:32:41.862Z,51.31
2023-01-27T23:35:11.445Z,50.56
2023-01-27T23:37:39.910Z,50.43
2023-01-27T23:40:10.460Z,50.45
2023-01-27T23:42:38.879Z,50.65
2023-01-27T23:45:08.508Z,50.28
2023-01-27T23:47:38.311Z,51.15
2023-01-27T23:50:08.034Z,50.31
2023-01-27T23:52:36.648Z,50.18
2023-01-27T23:55:05.684Z,50.80
2023-01-27T23:57:34.106Z,50.59
